Time;durP1;ratioP1;P1;durP2;ratioP2;P2;SDS_P1;SDS_P2;PMS_P1;PMS_P2;Temp;Humidity;BMP_temperature;BMP_pressure;BME280_temperature;BME280_humidity;BME280_pressure;Samples;Min_cycle;Max_cycle;Signal;HPM_P1;HPM_P2
2023/02/16 00:00:28;;;;;;;148.80;81.80;;;;;;;-1.96;100.00;99938.64;109291;1255;57362;-78
2023/02/16 00:03:20;;;;;;;150.40;81.20;;;;;;;-1.95;100.00;99939.52;109117;1256;57348;-77
2023/02/16 00:05:47;;;;;;;149.40;81.00;;;;;;;-1.93;100.00;99938.81;109143;1256;65622;-77
2023/02/16 00:08:14;;;;;;;147.10;78.40;;;;;;;-1.91;100.00;99939.86;107802;1255;1003050;-78
2023/02/16 00:13:43;;;;;;;145.00;79.40;;;;;;;-1.89;100.00;99936.21;109347;1255;65285;-78
2023/02/16 00:13:46;;;;;;;136.30;78.80;;;;;;;-1.89;100.00;99931.50;109298;1255;57346;-76
2023/02/16 00:16:23;;;;;;;140.50;80.40;;;;;;;-1.92;100.00;99924.72;109375;1256;57381;-77
2023/02/16 00:18:51;;;;;;;138.50;74.70;;;;;;;-1.96;100.00;99921.93;109379;1255;65223;-77
2023/02/16 00:21:18;;;;;;;131.10;71.00;;;;;;;-1.98;100.00;99920.18;109343;1256;61167;-78
2023/02/16 00:23:45;;;;;;;131.90;69.70;;;;;;;-1.97;100.00;99919.14;109309;1255;64073;-77
2023/02/16 00:26:15;;;;;;;125.30;70.10;;;;;;;-1.97;100.00;99920.89;109278;1256;57376;-76
2023/02/16 00:28:42;;;;;;;130.80;70.10;;;;;;;-1.99;100.00;99924.89;109110;1256;57418;-78
2023/02/16 00:31:18;;;;;;;127.40;69.40;;;;;;;-2.01;100.00;99919.32;109333;1255;64552;-74
2023/02/16 00:33:45;;;;;;;132.00;68.00;;;;;;;-2.03;100.00;99916.38;109026;1255;60246;-77
2023/02/16 00:36:12;;;;;;;121.00;65.50;;;;;;;-2.04;100.00;99921.59;109040;1256;65277;-76
2023/02/16 00:38:40;;;;;;;131.20;68.80;;;;;;;-2.06;100.00;99917.23;109316;1255;59723;-78
2023/02/16 00:41:49;;;;;;;131.30;68.90;;;;;;;-2.07;100.00;99913.42;109036;1256;57438;-75
2023/02/16 00:44:02;;;;;;;135.20;72.60;;;;;;;-2.09;100.00;99912.55;109293;1256;65681;-75
2023/02/16 00:46:29;;;;;;;131.20;71.90;;;;;;;-2.11;100.00;99910.81;109271;1256;60170;-74
2023/02/16 00:48:55;;;;;;;134.60;72.90;;;;;;;-2.12;100.00;99911.67;109295;1255;64196;-75
2023/02/16 00:51:22;;;;;;;127.70;68.40;;;;;;;-2.13;100.00;99905.59;108533;1255;1002864;-75
2023/02/16 00:53:49;;;;;;;138.30;72.30;;;;;;;-2.14;100.00;99896.70;109309;1255;57409;-75
2023/02/16 00:56:19;;;;;;;146.80;77.00;;;;;;;-2.16;100.00;99893.40;109357;1256;64436;-74
2023/02/16 00:58:49;;;;;;;130.20;70.30;;;;;;;-2.18;100.00;99885.75;109307;1255;61096;-76
2023/02/16 01:01:19;;;;;;;134.90;68.10;;;;;;;-2.21;100.00;99885.76;109088;1256;62875;-76
2023/02/16 01:03:46;;;;;;;129.10;72.10;;;;;;;-2.25;100.00;99880.52;109129;1256;57419;-76
2023/02/16 01:12:17;;;;;;;140.10;76.10;;;;;;;-2.33;100.00;99882.63;109332;1255;61133;-75
2023/02/16 01:14:49;;;;;;;134.60;72.20;;;;;;;-2.33;100.00;99884.71;109263;1256;65260;-76
2023/02/16 01:17:15;;;;;;;126.70;68.20;;;;;;;-2.32;100.00;99887.15;109070;1256;58157;-76
2023/02/16 01:19:42;;;;;;;124.60;67.20;;;;;;;-2.33;100.00;99890.10;109305;1255;58386;-75
2023/02/16 01:22:09;;;;;;;123.30;66.00;;;;;;;-2.34;100.00;99885.93;109309;1255;65227;-75
2023/02/16 01:24:35;;;;;;;117.70;63.00;;;;;;;-2.34;100.00;99879.66;109014;1256;60165;-76
2023/02/16 01:27:02;;;;;;;127.10;69.90;;;;;;;-2.35;100.00;99874.80;109305;1256;65656;-76
2023/02/16 01:29:29;;;;;;;120.00;65.00;;;;;;;-2.36;100.00;99865.74;108526;1256;1002908;-76
2023/02/16 01:31:55;;;;;;;114.80;63.00;;;;;;;-2.36;100.00;99862.09;109283;1256;58086;-76
2023/02/16 01:34:24;;;;;;;115.70;63.00;;;;;;;-2.36;100.00;99860.19;109325;1255;66393;-76
2023/02/16 01:36:51;;;;;;;117.90;66.10;;;;;;;-2.37;100.00;99860.36;108602;1255;1002832;-75
2023/02/16 01:39:19;;;;;;;109.40;59.20;;;;;;;-2.38;100.00;99859.66;109091;1255;65552;-76
2023/02/16 01:42:09;;;;;;;118.50;59.20;;;;;;;-2.40;100.00;99856.88;109295;1255;58148;-76
2023/02/16 01:44:39;;;;;;;112.50;58.40;;;;;;;-2.42;100.00;99852.70;109311;1256;58357;-76
2023/02/16 01:47:17;;;;;;;109.50;59.00;;;;;;;-2.44;100.00;99851.48;109272;1255;66400;-76
2023/02/16 01:49:44;;;;;;;110.10;58.10;;;;;;;-2.47;100.00;99844.52;109306;1257;61279;-76
2023/02/16 01:52:36;;;;;;;116.50;60.10;;;;;;;-2.49;100.00;99839.13;109275;1256;64741;-76
2023/02/16 01:55:23;;;;;;;112.80;58.70;;;;;;;-2.50;100.00;99831.65;109117;1256;58540;-76
2023/02/16 01:57:57;;;;;;;110.90;61.30;;;;;;;-2.52;100.00;99829.91;108978;1259;58215;-76
2023/02/16 02:00:49;;;;;;;117.80;65.70;;;;;;;-2.53;100.00;99829.20;108974;1259;66317;-76
2023/02/16 02:06:31;;;;;;;93.60;50.30;;;;;;;-2.54;100.00;99836.52;108920;1260;64259;-76
2023/02/16 02:08:58;;;;;;;104.00;54.20;;;;;;;-2.51;100.00;99832.52;108216;1259;1002456;-76
2023/02/16 02:12:22;;;;;;;107.40;55.70;;;;;;;-2.48;100.00;99832.69;108221;1259;1002337;-76
2023/02/16 02:14:48;;;;;;;103.90;53.20;;;;;;;-2.47;100.00;99828.34;108659;1265;65343;-77
2023/02/16 02:17:18;;;;;;;97.10;51.80;;;;;;;-2.44;100.00;99822.23;107926;1265;1002839;-76
2023/02/16 02:19:53;;;;;;;102.10;52.60;;;;;;;-2.39;100.00;99817.55;108653;1264;62943;-77
2023/02/16 02:25:34;;;;;;;97.70;52.90;;;;;;;-2.33;100.00;99816.31;108636;1265;58613;-76
2023/02/16 02:28:01;;;;;;;;;;;;;;;-2.33;100.00;99819.79;108225;1259;1002385;-77
2023/02/16 02:30:54;;;;;;;103.10;55.70;;;;;;;-2.34;100.00;99819.45;108200;1259;1002564;-77
2023/02/16 02:33:27;;;;;;;108.00;55.80;;;;;;;-2.33;100.00;99820.31;108235;1259;1002846;-76
2023/02/16 02:36:09;;;;;;;99.10;52.60;;;;;;;-2.32;100.00;99817.01;108204;1259;1002377;-76
2023/02/16 02:38:44;;;;;;;113.10;55.10;;;;;;;-2.33;100.00;99814.05;108965;1259;58146;-76
2023/02/16 02:41:19;;;;;;;102.30;51.80;;;;;;;-2.32;100.00;99821.54;108921;1259;65303;-77
2023/02/16 02:43:55;;;;;;;111.20;54.70;;;;;;;-2.29;100.00;99823.63;108987;1259;61238;-76
2023/02/16 02:46:30;;;;;;;110.70;54.70;;;;;;;-2.27;100.00;99822.39;109462;1251;65141;-76
2023/02/16 02:48:57;;;;;;;113.00;55.70;;;;;;;-2.27;100.00;99826.58;108842;1251;1002183;-76
2023/02/16 02:51:30;;;;;;;108.10;55.60;;;;;;;-2.28;100.00;99827.80;109629;1251;58204;-76
2023/02/16 03:00:42;;;;;;;102.00;51.20;;;;;;;-2.26;100.00;99832.66;108905;1251;1003046;-77
2023/02/16 03:03:13;;;;;;;99.90;51.90;;;;;;;-2.29;100.00;99831.27;109647;1251;58511;-76
2023/02/16 03:05:52;;;;;;;109.70;55.00;;;;;;;-2.31;100.00;99829.88;109676;1251;58214;-76
2023/02/16 03:08:22;;;;;;;109.80;52.50;;;;;;;-2.34;100.00;99827.45;108841;1251;1002406;-77
2023/02/16 03:13:49;;;;;;;111.00;56.00;;;;;;;-2.43;100.00;99833.55;109539;1251;65215;-76
2023/02/16 03:16:25;;;;;;;100.20;53.60;;;;;;;-2.46;100.00;99836.34;109416;1253;58283;-77
2023/02/16 03:30:06;;;;;;;112.50;57.30;;;;;;;-2.62;100.00;99837.05;109540;1252;58158;-76
2023/02/16 03:32:33;;;;;;;113.00;58.30;;;;;;;-2.61;100.00;99835.48;109374;1252;58219;-75
2023/02/16 03:35:00;;;;;;;101.40;51.70;;;;;;;-2.62;100.00;99829.73;109609;1253;65269;-76
2023/02/16 03:37:27;;;;;;;101.60;51.80;;;;;;;-2.62;100.00;99825.05;109618;1253;60134;-76
2023/02/16 03:42:39;;;;;;;97.50;49.10;;;;;;;-2.68;100.00;99821.04;109580;1253;58127;-76
2023/02/16 03:45:06;;;;;;;101.00;52.40;;;;;;;-2.69;100.00;99825.21;109533;1252;58031;-76
2023/02/16 03:47:33;;;;;;;102.70;53.00;;;;;;;-2.69;100.00;99825.39;109563;1252;65487;-75
2023/02/16 03:49:59;;;;;;;96.80;52.50;;;;;;;-2.68;100.00;99830.27;109567;1252;60173;-75
2023/02/16 03:52:26;;;;;;;95.70;47.20;;;;;;;-2.65;100.00;99825.57;109569;1253;62869;-75
2023/02/16 03:54:53;;;;;;;91.80;49.70;;;;;;;-2.60;100.00;99830.61;109561;1253;58195;-76
2023/02/16 03:57:19;;;;;;;100.30;48.60;;;;;;;-2.57;100.00;99828.70;109587;1252;58303;-76
2023/02/16 03:59:46;;;;;;;98.50;47.80;;;;;;;-2.52;100.00;99830.78;109215;1254;65485;-76
2023/02/16 04:02:13;;;;;;;90.40;45.50;;;;;;;-2.48;100.00;99824.69;109603;1252;60145;-75
2023/02/16 04:04:39;;;;;;;90.60;44.60;;;;;;;-2.44;100.00;99819.98;109518;1252;65212;-76
2023/02/16 04:07:06;;;;;;;96.20;47.30;;;;;;;-2.40;100.00;99814.05;109532;1254;58269;-75
2023/02/16 04:09:33;;;;;;;84.70;43.20;;;;;;;-2.36;100.00;99815.98;109584;1253;58213;-75
2023/02/16 04:14:44;;;;;;;90.10;42.60;;;;;;;-2.28;100.00;99807.95;109610;1252;61204;-76
2023/02/16 04:17:11;;;;;;;86.20;44.70;;;;;;;-2.23;100.00;99806.91;109584;1254;65037;-76
2023/02/16 04:19:38;;;;;;;90.60;43.60;;;;;;;-2.20;100.00;99803.06;109586;1252;58116;-76
2023/02/16 04:22:04;;;;;;;85.10;44.80;;;;;;;-2.17;100.00;99804.27;109208;1253;58156;-76
2023/02/16 04:24:31;;;;;;;82.40;40.60;;;;;;;-2.14;100.00;99801.83;109567;1253;66320;-75
2023/02/16 04:26:58;;;;;;;81.50;39.80;;;;;;;-2.09;100.00;99796.95;108852;1253;1002594;-75
2023/02/16 04:29:24;;;;;;;84.60;41.60;;;;;;;-2.05;100.00;99798.52;108810;1253;1002192;-75
2023/02/16 04:31:52;;;;;;;85.20;42.60;;;;;;;-2.03;100.00;99797.11;109537;1253;58128;-75
2023/02/16 04:34:18;;;;;;;80.20;38.10;;;;;;;-1.96;100.00;99798.30;109619;1254;58229;-76
2023/02/16 04:36:45;;;;;;;84.00;42.20;;;;;;;-1.89;100.00;99799.14;109599;1252;65334;-76
2023/02/16 04:39:12;;;;;;;84.20;42.20;;;;;;;-1.84;100.00;99791.81;108820;1254;1002370;-76
2023/02/16 04:41:38;;;;;;;83.20;41.10;;;;;;;-1.82;100.00;99793.20;109592;1253;58220;-76
2023/02/16 04:44:05;;;;;;;79.50;41.00;;;;;;;-1.77;100.00;99791.09;109430;1252;58189;-77
2023/02/16 04:46:32;;;;;;;85.40;40.80;;;;;;;-1.73;100.00;99789.85;109545;1252;58279;-76
2023/02/16 04:48:58;;;;;;;86.20;41.20;;;;;;;-1.70;100.00;99786.52;109553;1253;66381;-75
2023/02/16 04:51:25;;;;;;;77.20;39.10;;;;;;;-1.66;100.00;99787.55;109576;1253;60287;-76
2023/02/16 04:53:51;;;;;;;82.80;42.50;;;;;;;-1.64;100.00;99785.10;109569;1252;64251;-75
2023/02/16 04:56:18;;;;;;;83.80;44.20;;;;;;;-1.63;100.00;99779.18;109619;1252;58277;-76
2023/02/16 04:58:45;;;;;;;90.30;44.50;;;;;;;-1.63;100.00;99777.44;108815;1253;1003065;-76
2023/02/16 05:01:22;;;;;;;81.30;41.30;;;;;;;-1.62;100.00;99776.73;109586;1253;58280;-76
2023/02/16 05:03:48;;;;;;;78.60;39.80;;;;;;;-1.59;100.00;99777.06;109208;1252;58938;-76
2023/02/16 05:06:15;;;;;;;74.50;38.10;;;;;;;-1.56;100.00;99771.46;109552;1254;65085;-76
2023/02/16 05:08:42;;;;;;;71.60;36.60;;;;;;;-1.57;100.00;99771.48;109573;1253;58238;-75
2023/02/16 05:16:41;;;;;;;76.10;40.30;;;;;;;-1.52;100.00;99775.64;109564;1253;61413;-73
2023/02/16 05:19:08;;;;;;;71.40;37.30;;;;;;;-1.50;100.00;99779.80;109532;1252;65442;-72
2023/02/16 05:21:35;;;;;;;73.60;39.20;;;;;;;-1.46;100.00;99776.64;109395;1253;60621;-72
2023/02/16 05:24:04;;;;;;;69.00;37.10;;;;;;;-1.45;100.00;99772.45;109566;1253;58094;-73
2023/02/16 05:26:32;;;;;;;77.40;40.80;;;;;;;-1.42;100.00;99773.99;109088;1254;66574;-73
2023/02/16 05:29:00;;;;;;;79.90;40.80;;;;;;;-1.40;100.00;99769.80;109549;1254;61183;-73
2023/02/16 05:31:27;;;;;;;82.00;41.50;;;;;;;-1.42;100.00;99771.56;109597;1254;64469;-74
2023/02/16 05:33:54;;;;;;;81.70;41.60;;;;;;;-1.41;100.00;99779.23;109227;1254;58246;-73
2023/02/16 05:36:21;;;;;;;93.20;46.80;;;;;;;-1.36;100.00;99780.77;109591;1253;58126;-73
2023/02/16 05:38:48;;;;;;;88.30;43.90;;;;;;;-1.31;100.00;99777.61;109264;1252;65102;-72
2023/02/16 05:41:22;;;;;;;87.80;43.60;;;;;;;-1.29;100.00;99779.52;109600;1253;60363;-73
2023/02/16 05:43:51;;;;;;;83.90;41.20;;;;;;;-1.28;100.00;99777.59;109550;1252;64937;-73
2023/02/16 05:46:19;;;;;;;87.30;44.10;;;;;;;-1.27;100.00;99774.96;109181;1252;60057;-73
2023/02/16 05:48:46;;;;;;;85.60;45.70;;;;;;;-1.28;100.00;99778.46;109419;1252;58605;-73
2023/02/16 05:51:13;;;;;;;90.80;45.00;;;;;;;-1.29;100.00;99779.52;109549;1253;65242;-73
2023/02/16 05:53:39;;;;;;;82.60;42.00;;;;;;;-1.29;100.00;99780.38;109302;1252;61315;-73
2023/02/16 05:56:07;;;;;;;79.30;41.80;;;;;;;-1.31;100.00;99781.61;109593;1253;65273;-73
2023/02/16 05:58:33;;;;;;;84.50;42.60;;;;;;;-1.31;100.00;99784.91;108353;1253;1002144;-73
2023/02/16 06:01:00;;;;;;;81.80;41.50;;;;;;;-1.33;100.00;99787.73;109418;1254;58252;-74
2023/02/16 06:03:27;;;;;;;81.90;42.20;;;;;;;-1.34;100.00;99785.64;109595;1253;65279;-73
2023/02/16 06:05:56;;;;;;;73.40;38.60;;;;;;;-1.36;100.00;99787.90;109225;1254;58987;-74
2023/02/16 06:08:23;;;;;;;73.80;38.40;;;;;;;-1.36;100.00;99786.51;109445;1253;65213;-73
2023/02/16 06:10:51;;;;;;;77.20;40.30;;;;;;;-1.33;100.00;99790.34;108318;1252;1002414;-72
2023/02/16 06:13:19;;;;;;;64.20;35.40;;;;;;;-1.27;100.00;99794.66;109602;1252;58231;-73
2023/02/16 06:15:49;;;;;;;74.00;39.20;;;;;;;-1.20;100.00;99790.95;109595;1253;66046;-73
2023/02/16 06:18:16;;;;;;;69.50;36.10;;;;;;;-1.16;100.00;99789.00;109077;1254;58986;-72
2023/02/16 06:20:43;;;;;;;70.30;36.20;;;;;;;-1.12;100.00;99792.12;109551;1253;65127;-73
2023/02/16 06:23:11;;;;;;;67.00;35.70;;;;;;;-1.08;100.00;99797.67;109588;1253;58986;-74
2023/02/16 06:25:42;;;;;;;73.40;38.20;;;;;;;-1.01;100.00;99799.71;109181;1252;58208;-72
2023/02/16 06:28:09;;;;;;;70.80;36.80;;;;;;;-0.93;100.00;99806.11;109622;1253;66585;-73
2023/02/16 06:30:36;;;;;;;66.90;36.10;;;;;;;-0.88;100.00;99810.61;109594;1252;61012;-72
2023/02/16 06:33:03;;;;;;;70.40;36.00;;;;;;;-0.82;100.00;99815.80;109585;1253;65301;-72
2023/02/16 06:35:30;;;;;;;66.90;35.10;;;;;;;-0.74;100.00;99816.77;109531;1253;58228;-73
2023/02/16 06:37:57;;;;;;;78.40;41.80;;;;;;;-0.62;100.00;99817.39;109238;1252;58166;-73
2023/02/16 06:40:24;;;;;;;75.20;40.60;;;;;;;-0.54;100.00;99812.77;109545;1254;65316;-73
2023/02/16 06:42:51;;;;;;;73.30;39.90;;;;;;;-0.49;100.00;99812.21;109576;1254;60929;-74
2023/02/16 06:45:18;;;;;;;68.90;38.80;;;;;;;-0.43;100.00;99813.02;109587;1253;65070;-73
2023/02/16 06:47:45;;;;;;;84.20;42.00;;;;;;;-0.37;100.00;99810.02;109587;1253;59823;-74
2023/02/16 06:50:13;;;;;;;73.50;39.50;;;;;;;-0.33;100.00;99809.95;109550;1254;58281;-73
2023/02/16 06:52:39;;;;;;;78.40;42.30;;;;;;;-0.26;100.00;99806.93;109568;1253;66567;-73
2023/02/16 06:55:07;;;;;;;68.80;38.20;;;;;;;-0.18;100.00;99810.86;109562;1254;60831;-73
2023/02/16 06:57:33;;;;;;;67.30;37.30;;;;;;;-0.10;100.00;99812.17;109524;1253;65197;-73
2023/02/16 07:00:00;;;;;;;67.00;36.50;;;;;;;-0.00;100.00;99812.95;109531;1252;58271;-73
2023/02/16 07:02:27;;;;;;;69.50;38.50;;;;;;;0.08;100.00;99807.80;109569;1253;58241;-73
2023/02/16 07:04:55;;;;;;;73.30;39.00;;;;;;;0.17;100.00;99807.86;109538;1253;66158;-74
2023/02/16 07:07:23;;;;;;;68.30;38.80;;;;;;;0.25;100.00;99810.91;109596;1253;60227;-73
2023/02/16 07:09:49;;;;;;;63.40;35.00;;;;;;;0.34;100.00;99805.21;109503;1252;65213;-73
2023/02/16 07:12:16;;;;;;;68.60;37.70;;;;;;;0.42;100.00;99808.96;109511;1254;58146;-73
2023/02/16 07:14:43;;;;;;;67.80;37.70;;;;;;;0.49;100.00;99804.66;109552;1253;58249;-73
2023/02/16 07:17:09;;;;;;;69.70;39.30;;;;;;;0.56;100.00;99802.67;109587;1254;66292;-72
2023/02/16 07:19:36;;;;;;;61.50;34.40;;;;;;;0.62;100.00;99803.10;109571;1253;60145;-73
2023/02/16 07:22:04;;;;;;;68.30;36.50;;;;;;;0.68;100.00;99807.56;109596;1252;65282;-73
2023/02/16 07:24:30;;;;;;;63.20;35.40;;;;;;;0.76;100.00;99808.16;109513;1254;58375;-73
2023/02/16 07:26:57;;;;;;;61.60;36.10;;;;;;;0.83;100.00;99809.27;109557;1252;58062;-73
2023/02/16 07:29:24;;;;;;;60.90;34.30;;;;;;;0.92;100.00;99809.14;109563;1254;65317;-73
2023/02/16 07:31:50;;;;;;;57.20;32.90;;;;;;;0.99;100.00;99806.40;109543;1254;60254;-73
2023/02/16 07:34:17;;;;;;;63.40;36.90;;;;;;;1.07;100.00;99805.77;109566;1252;65026;-73
2023/02/16 07:36:44;;;;;;;57.10;34.40;;;;;;;1.15;100.00;99809.14;108773;1256;1002359;-72
2023/02/16 07:39:11;;;;;;;60.80;36.10;;;;;;;1.24;100.00;99805.86;109613;1253;58328;-73
2023/02/16 07:41:38;;;;;;;60.90;34.10;;;;;;;1.32;100.00;99806.77;109545;1252;65717;-72
2023/02/16 07:44:05;;;;;;;56.40;33.10;;;;;;;1.40;100.00;99804.20;109562;1254;60980;-73
2023/02/16 07:46:31;;;;;;;52.20;29.80;;;;;;;1.48;100.00;99801.96;109109;1254;65416;-71
2023/02/16 07:48:58;;;;;;;58.60;33.90;;;;;;;1.56;100.00;99800.07;109556;1253;58232;-72
2023/02/16 07:51:28;;;;;;;52.50;30.00;;;;;;;1.65;100.00;99797.98;109555;1254;58493;-72
2023/02/16 07:53:55;;;;;;;54.90;32.90;;;;;;;1.74;100.00;99799.58;109585;1255;65393;-72
2023/02/16 07:56:28;;;;;;;55.20;32.20;;;;;;;1.84;100.00;99800.62;109467;1253;61298;-72
2023/02/16 07:58:56;;;;;;;54.10;32.30;;;;;;;1.93;100.00;99793.78;109403;1254;64578;-72
2023/02/16 08:01:24;;;;;;;47.10;28.60;;;;;;;2.03;100.00;99797.80;108769;1253;1002235;-72
2023/02/16 08:03:51;;;;;;;54.30;31.30;;;;;;;2.12;100.00;99802.36;109408;1253;58233;-73
2023/02/16 08:06:19;;;;;;;55.80;31.40;;;;;;;2.20;100.00;99797.65;109590;1253;66694;-73
2023/02/16 08:08:46;;;;;;;50.30;31.40;;;;;;;2.29;100.00;99799.93;109389;1254;60460;-73
2023/02/16 08:11:12;;;;;;;50.70;30.50;;;;;;;2.38;100.00;99798.52;109085;1254;65315;-73
2023/02/16 08:13:40;;;;;;;51.80;33.20;;;;;;;2.48;100.00;99795.52;109592;1254;58200;-73
2023/02/16 08:16:17;;;;;;;49.80;31.70;;;;;;;2.58;100.00;99797.55;109619;1254;58222;-74
2023/02/16 08:18:44;;;;;;;50.20;31.70;;;;;;;2.69;100.00;99798.56;109410;1254;65366;-73
2023/02/16 08:21:14;;;;;;;51.90;31.60;;;;;;;2.77;100.00;99796.44;109557;1252;61130;-73
2023/02/16 08:23:46;;;;;;;52.60;30.30;;;;;;;2.88;100.00;99792.35;109404;1254;64260;-73
2023/02/16 08:26:18;;;;;;;49.00;30.80;;;;;;;2.96;100.00;99787.77;109479;1254;58272;-73
2023/02/16 08:28:46;;;;;;;52.00;30.30;;;;;;;3.06;100.00;99787.54;109590;1252;58219;-73
2023/02/16 08:31:15;;;;;;;50.10;31.70;;;;;;;3.14;100.00;99790.16;109597;1254;66808;-73
2023/02/16 08:33:42;;;;;;;46.70;28.20;;;;;;;3.21;100.00;99789.63;109566;1254;60463;-73
2023/02/16 08:36:28;;;;;;;45.70;28.90;;;;;;;3.28;100.00;99791.58;109397;1254;64032;-73
2023/02/16 08:38:55;;;;;;;46.10;29.10;;;;;;;3.38;100.00;99790.80;109535;1256;58178;-73
2023/02/16 08:41:25;;;;;;;44.90;28.80;;;;;;;3.48;100.00;99785.46;109580;1254;58257;-73
2023/02/16 08:43:53;;;;;;;38.60;25.70;;;;;;;3.56;100.00;99785.62;109396;1254;66241;-73
2023/02/16 08:46:21;;;;;;;45.80;27.70;;;;;;;3.62;100.00;99791.26;109598;1254;60223;-73
2023/02/16 08:48:48;;;;;;;43.80;28.00;;;;;;;3.67;100.00;99793.39;109223;1254;62690;-72
2023/02/16 08:51:17;;;;;;;41.80;26.70;;;;;;;3.73;100.00;99797.12;109418;1254;58184;-72
2023/02/16 08:53:45;;;;;;;43.10;26.90;;;;;;;3.80;100.00;99790.43;109411;1253;58170;-73
2023/02/16 08:56:13;;;;;;;43.80;27.90;;;;;;;3.87;100.00;99787.59;109194;1254;66016;-73
2023/02/16 08:58:40;;;;;;;43.20;27.00;;;;;;;3.97;100.00;99787.35;109596;1254;61344;-73
2023/02/16 09:01:08;;;;;;;41.70;26.70;;;;;;;4.06;100.00;99780.23;109536;1254;64218;-73
2023/02/16 09:03:37;;;;;;;42.90;28.40;;;;;;;4.17;100.00;99776.58;109542;1253;58250;-73
2023/02/16 09:06:05;;;;;;;40.20;26.20;;;;;;;4.28;100.00;99776.63;109428;1253;58209;-74
2023/02/16 09:08:32;;;;;;;42.00;26.80;;;;;;;4.37;100.00;99776.52;109390;1253;65272;-73
2023/02/16 09:11:07;;;;;;;40.40;26.80;;;;;;;4.43;100.00;99778.83;109576;1254;60746;-72
2023/02/16 09:13:36;;;;;;;39.70;25.10;;;;;;;4.51;100.00;99783.17;109419;1253;65215;-72
2023/02/16 09:16:04;;;;;;;39.90;25.70;;;;;;;4.57;100.00;99786.67;109332;1253;58114;-72
2023/02/16 09:18:33;;;;;;;41.20;26.20;;;;;;;4.66;100.00;99789.92;109280;1253;58270;-73
2023/02/16 09:21:20;;;;;;;36.30;25.10;;;;;;;4.75;100.00;99783.15;109561;1254;66330;-73
2023/02/16 09:23:48;;;;;;;36.70;23.60;;;;;;;4.83;100.00;99787.48;109605;1253;60295;-72
2023/02/16 09:26:17;;;;;;;40.50;26.40;;;;;;;4.91;100.00;99786.70;109592;1253;65216;-73
2023/02/16 09:28:44;;;;;;;36.20;23.70;;;;;;;4.98;100.00;99786.48;109090;1254;58267;-72
2023/02/16 09:31:24;;;;;;;35.50;23.50;;;;;;;5.04;100.00;99788.77;109568;1253;58271;-72
2023/02/16 09:33:52;;;;;;;37.60;24.70;;;;;;;5.12;100.00;99788.16;109420;1254;65212;-73
2023/02/16 09:36:19;;;;;;;38.00;24.80;;;;;;;5.19;100.00;99787.77;109428;1253;60233;-73
2023/02/16 09:38:49;;;;;;;36.60;25.30;;;;;;;5.25;100.00;99789.50;109549;1254;64068;-74
2023/02/16 09:41:34;;;;;;;37.20;24.10;;;;;;;5.30;100.00;99791.64;109544;1253;58192;-73
2023/02/16 09:44:32;;;;;;;36.40;24.50;;;;;;;5.36;100.00;99795.16;109567;1254;58271;-73
2023/02/16 09:47:03;;;;;;;36.10;24.60;;;;;;;5.43;100.00;99797.90;109541;1254;66391;-73
2023/02/16 09:49:34;;;;;;;34.70;23.60;;;;;;;5.52;100.00;99796.21;109414;1254;59897;-73
2023/02/16 09:52:08;;;;;;;32.90;21.90;;;;;;;5.58;100.00;99797.40;109601;1254;65169;-74
2023/02/16 09:54:59;;;;;;;30.90;22.40;;;;;;;5.63;100.00;99800.23;109593;1253;58472;-74
2023/02/16 09:57:38;;;;;;;33.50;22.10;;;;;;;5.65;100.00;99801.02;108933;1261;58176;-74
2023/02/16 10:00:24;;;;;;;31.40;21.80;;;;;;;5.71;100.00;99801.73;108920;1260;66444;-73
2023/02/16 10:03:18;;;;;;;30.50;22.80;;;;;;;5.80;100.00;99798.07;108959;1259;60229;-73
2023/02/16 10:05:50;;;;;;;31.30;21.40;;;;;;;5.88;100.00;99802.19;108957;1260;64063;-72
2023/02/16 10:08:30;;;;;;;31.50;22.10;;;;;;;5.95;100.00;99800.23;108936;1260;58257;-72
2023/02/16 10:11:36;;;;;;;33.60;23.00;;;;;;;5.99;100.00;99802.21;108977;1259;58240;-72
2023/02/16 10:14:07;;;;;;;30.30;21.20;;;;;;;6.05;100.00;99803.38;108954;1260;66346;-72
2023/02/16 10:16:41;;;;;;;33.00;23.50;;;;;;;6.18;100.00;99800.09;108889;1260;59478;-72
2023/02/16 10:19:24;;;;;;;31.50;22.80;;;;;;;6.28;100.00;99797.30;108973;1259;65358;-71
2023/02/16 10:21:57;;;;;;;31.00;22.30;;;;;;;6.35;100.00;99787.67;108969;1259;58464;-72
2023/02/16 10:24:26;;;;;;;31.10;22.50;;;;;;;6.42;100.00;99780.55;108961;1260;58233;-73
2023/02/16 10:27:01;;;;;;;33.00;22.70;;;;;;;6.48;100.00;99779.94;108968;1260;66613;-72
2023/02/16 10:29:28;;;;;;;29.60;20.70;;;;;;;6.51;100.00;99780.73;108926;1260;60231;-73
2023/02/16 10:32:01;;;;;;;30.00;21.30;;;;;;;6.58;100.00;99775.17;108904;1259;65275;-72
2023/02/16 10:34:31;;;;;;;29.20;20.70;;;;;;;6.70;100.00;99768.86;109252;1253;58215;-73
2023/02/16 10:37:16;;;;;;;32.90;23.30;;;;;;;6.81;100.00;99770.02;109582;1252;58086;-73
2023/02/16 10:39:45;;;;;;;30.90;21.10;;;;;;;6.88;100.00;99766.95;109584;1254;66345;-73
2023/02/16 10:42:42;;;;;;;29.00;21.50;;;;;;;6.91;100.00;99761.50;109620;1253;60617;-77
2023/02/16 10:45:09;;;;;;;28.50;22.10;;;;;;;6.96;100.00;99758.48;109403;1252;65623;-76
2023/02/16 10:47:42;;;;;;;27.90;20.80;;;;;;;7.03;100.00;99753.64;109510;1253;58138;-77
2023/02/16 10:50:37;;;;;;;29.20;20.00;;;;;;;7.10;100.00;99750.52;109551;1254;58055;-77
2023/02/16 10:53:20;;;;;;;26.30;20.10;;;;;;;7.17;100.00;99742.65;109599;1253;66010;-76
2023/02/16 10:55:47;;;;;;;28.50;21.20;;;;;;;7.20;100.00;99739.34;109579;1253;60223;-76
2023/02/16 10:58:25;;;;;;;30.40;22.40;;;;;;;7.19;100.00;99732.11;109269;1253;65269;-76
2023/02/16 11:01:01;;;;;;;28.60;22.10;;;;;;;7.20;100.00;99729.98;109387;1253;58278;-76
2023/02/16 11:03:32;;;;;;;32.00;22.50;;;;;;;7.22;100.00;99721.23;109498;1253;58262;-77
2023/02/16 11:06:17;;;;;;;31.40;21.70;;;;;;;7.28;100.00;99724.86;109569;1253;66608;-77
2023/02/16 11:08:53;;;;;;;30.00;21.40;;;;;;;7.31;100.00;99719.59;109379;1254;60323;-77
2023/02/16 11:11:21;;;;;;;29.40;21.70;;;;;;;7.34;100.00;99712.56;109583;1253;65243;-78
2023/02/16 11:13:56;;;;;;;30.10;22.10;;;;;;;7.38;100.00;99713.29;109499;1252;58178;-77
2023/02/16 11:16:23;;;;;;;27.60;20.40;;;;;;;7.38;100.00;99706.39;109541;1253;58049;-77
2023/02/16 11:19:08;;;;;;;30.10;21.60;;;;;;;7.42;100.00;99704.44;109545;1253;65349;-77
2023/02/16 11:22:05;;;;;;;29.50;20.60;;;;;;;7.45;100.00;99702.72;109194;1253;60262;-78
2023/02/16 11:24:36;;;;;;;28.20;21.70;;;;;;;7.49;100.00;99705.08;108950;1260;65496;-77
2023/02/16 11:27:13;;;;;;;29.90;21.60;;;;;;;7.55;100.00;99699.67;108919;1259;58184;-77
2023/02/16 11:29:40;;;;;;;29.00;21.60;;;;;;;7.62;100.00;99695.13;108965;1259;58133;-77
2023/02/16 11:32:09;;;;;;;31.00;21.60;;;;;;;7.71;100.00;99682.88;108959;1260;64150;-77
2023/02/16 11:34:41;;;;;;;30.60;20.80;;;;;;;7.82;100.00;99675.48;108926;1259;60256;-77
2023/02/16 11:37:27;;;;;;;27.90;20.80;;;;;;;7.91;100.00;99676.48;108976;1259;65421;-77
2023/02/16 11:39:59;;;;;;;34.90;22.30;;;;;;;8.00;100.00;99673.60;108952;1260;58240;-77
2023/02/16 11:42:26;;;;;;;26.70;19.90;;;;;;;8.11;100.00;99665.67;108983;1260;58145;-76
2023/02/16 11:44:56;;;;;;;28.50;20.60;;;;;;;8.17;100.00;99660.45;108964;1259;66484;-77
2023/02/16 11:48:06;;;;;;;28.00;21.00;;;;;;;8.19;100.00;99661.06;108922;1260;60270;-77
2023/02/16 11:50:37;;;;;;;;;;;;;;;8.21;100.00;99660.27;108926;1259;64801;-77
2023/02/16 11:53:13;;;;;;;27.80;20.80;;;;;;;8.21;100.00;99660.64;108975;1259;58225;-77
2023/02/16 11:55:43;;;;;;;26.60;20.00;;;;;;;8.25;100.00;99660.06;108876;1259;58303;-77
2023/02/16 11:58:26;;;;;;;29.70;20.00;;;;;;;8.29;100.00;99659.50;108901;1260;65731;-77
2023/02/16 12:01:27;;;;;;;28.20;19.80;;;;;;;8.33;100.00;99658.45;109019;1257;61281;-77
2023/02/16 12:04:29;;;;;;;29.30;21.70;;;;;;;8.36;100.00;99656.54;109260;1256;65272;-77